Time;durP1;ratioP1;P1;durP2;ratioP2;P2;SDS_P1;SDS_P2;PMS_P1;PMS_P2;Temp;Humidity;BMP_temperature;BMP_pressure;BME280_temperature;BME280_humidity;BME280_pressure;Samples;Min_cycle;Max_cycle;Signal;HPM_P1;HPM_P2
2021/05/17 00:01:59;;;;;;;2.60;2.30;;;11.60;1.00;;;;;;5028367;28;20433;-78
2021/05/17 00:04:31;;;;;;;2.07;1.97;;;11.50;1.00;;;;;;5019961;28;20469;-81
2021/05/17 00:06:59;;;;;;;2.70;2.10;;;11.50;1.00;;;;;;5021199;28;20499;-79
2021/05/17 00:09:26;;;;;;;3.17;2.80;;;11.50;1.00;;;;;;5018517;28;20509;-80
2021/05/17 00:11:54;;;;;;;1.93;1.80;;;11.40;1.00;;;;;;5024863;28;20413;-80
2021/05/17 00:14:22;;;;;;;2.60;2.27;;;11.40;1.00;;;;;;5026922;28;20466;-78
2021/05/17 00:16:50;;;;;;;2.03;1.87;;;11.40;1.00;;;;;;4992842;28;20445;-78
2021/05/17 00:19:16;;;;;;;3.20;2.47;;;11.40;1.00;;;;;;5011530;28;20472;-79
2021/05/17 00:21:43;;;;;;;2.50;2.30;;;11.40;1.00;;;;;;5005024;28;21006;-80
2021/05/17 00:24:12;;;;;;;2.70;2.50;;;11.30;1.00;;;;;;5013843;28;20477;-79
2021/05/17 00:26:39;;;;;;;2.40;2.20;;;11.30;1.00;;;;;;5016557;28;20450;-78
2021/05/17 00:29:09;;;;;;;2.17;2.00;;;11.30;1.00;;;;;;5013895;28;20466;-78
2021/05/17 00:31:35;;;;;;;2.40;2.17;;;11.40;1.00;;;;;;4999386;28;20505;-79
2021/05/17 00:34:03;;;;;;;1.90;1.80;;;11.30;1.00;;;;;;5014129;28;20768;-79
2021/05/17 00:36:30;;;;;;;2.40;1.97;;;11.30;1.00;;;;;;5016120;28;20445;-78
2021/05/17 00:38:58;;;;;;;4.03;2.22;;;11.30;1.00;;;;;;5010432;28;20529;-78
2021/05/17 00:41:25;;;;;;;2.88;2.67;;;11.30;1.00;;;;;;5025221;28;20290;-78
2021/05/17 00:43:53;;;;;;;3.70;2.50;;;11.30;1.00;;;;;;5020391;28;20222;-79
2021/05/17 00:46:23;;;;;;;2.47;2.20;;;11.30;1.00;;;;;;5021641;28;20410;-77
2021/05/17 00:48:50;;;;;;;3.20;2.78;;;11.30;1.00;;;;;;5024740;28;20442;-79
2021/05/17 00:51:18;;;;;;;2.63;2.40;;;11.30;1.00;;;;;;5021088;28;20224;-80
2021/05/17 00:53:46;;;;;;;2.50;2.30;;;11.40;1.00;;;;;;5011204;28;20462;-81
2021/05/17 00:56:13;;;;;;;3.30;2.20;;;11.30;1.00;;;;;;5013021;28;20424;-79
2021/05/17 00:58:40;;;;;;;3.00;2.30;;;11.20;1.00;;;;;;5010869;28;20465;-78
2021/05/17 01:01:07;;;;;;;2.70;2.45;;;11.20;1.00;;;;;;5011310;28;21107;-77
2021/05/17 01:03:34;;;;;;;2.40;2.17;;;11.10;1.00;;;;;;5010015;28;21133;-80
2021/05/17 01:06:01;;;;;;;2.50;2.30;;;11.10;1.00;;;;;;5018493;28;20222;-80
2021/05/17 01:08:34;;;;;;;3.40;2.70;;;11.00;1.00;;;;;;5012066;28;20468;-78
2021/05/17 01:11:04;;;;;;;3.90;1.95;;;10.90;1.00;;;;;;5018162;28;20417;-80
2021/05/17 01:13:31;;;;;;;3.60;2.73;;;10.90;1.00;;;;;;4991941;28;20287;-78
2021/05/17 01:15:59;;;;;;;3.30;2.63;;;10.80;1.00;;;;;;5010865;28;20924;-76
2021/05/17 01:18:27;;;;;;;2.58;2.38;;;10.80;1.00;;;;;;5012334;28;20561;-77
2021/05/17 01:20:55;;;;;;;2.72;2.53;;;10.80;1.00;;;;;;5007004;28;20234;-78
2021/05/17 01:23:43;;;;;;;5.05;3.50;;;10.80;1.00;;;;;;5012632;28;20306;-79
2021/05/17 01:26:10;;;;;;;4.55;2.65;;;10.80;1.00;;;;;;5008039;28;20306;-78
2021/05/17 01:28:38;;;;;;;4.13;2.40;;;10.70;1.00;;;;;;5016503;28;21416;-78
2021/05/17 01:31:06;;;;;;;2.83;2.63;;;10.60;1.00;;;;;;4996357;28;20232;-78
2021/05/17 01:33:35;;;;;;;3.03;2.72;;;10.60;1.00;;;;;;5008768;28;20419;-79
2021/05/17 01:36:04;;;;;;;4.97;2.95;;;10.50;1.00;;;;;;5007849;28;20228;-79
2021/05/17 01:38:34;;;;;;;2.63;2.42;;;10.50;1.00;;;;;;5012263;28;20219;-79
2021/05/17 01:41:04;;;;;;;3.23;2.93;;;10.50;1.00;;;;;;5018326;28;20296;-79
2021/05/17 01:43:33;;;;;;;2.80;2.60;;;10.50;1.00;;;;;;4999642;28;20429;-79
2021/05/17 01:46:01;;;;;;;2.92;2.65;;;10.40;1.00;;;;;;5022744;28;20406;-78
2021/05/17 01:48:28;;;;;;;3.30;3.00;;;10.40;1.00;;;;;;5037844;28;20215;-77
2021/05/17 01:50:55;;;;;;;6.55;2.92;;;10.30;1.00;;;;;;5038868;28;20219;-77
2021/05/17 01:53:22;;;;;;;2.70;2.50;;;10.30;1.00;;;;;;5030725;28;20215;-77
2021/05/17 01:55:50;;;;;;;2.97;2.55;;;10.30;1.00;;;;;;5011466;28;20227;-78
2021/05/17 01:58:21;;;;;;;3.97;2.60;;;10.20;1.00;;;;;;5038927;28;20224;-79
2021/05/17 02:00:48;;;;;;;5.18;2.90;;;10.20;1.00;;;;;;5015742;28;20255;-78
2021/05/17 02:03:14;;;;;;;4.45;2.95;;;10.20;1.00;;;;;;5028505;28;20254;-78
2021/05/17 02:05:41;;;;;;;4.20;2.65;;;10.20;1.00;;;;;;5020345;28;21649;-80
2021/05/17 02:08:11;;;;;;;3.17;2.90;;;10.20;1.00;;;;;;5020505;28;20230;-78
2021/05/17 02:10:40;;;;;;;3.67;2.75;;;10.20;1.00;;;;;;5030459;28;20240;-79
2021/05/17 02:13:08;;;;;;;3.35;3.05;;;10.20;1.00;;;;;;5024954;28;20213;-78
2021/05/17 02:15:36;;;;;;;6.03;2.88;;;10.20;1.00;;;;;;5010029;28;20221;-77
2021/05/17 02:18:05;;;;;;;3.05;2.80;;;10.20;1.00;;;;;;4989837;28;20230;-79
2021/05/17 02:20:34;;;;;;;3.60;2.65;;;10.20;1.00;;;;;;5012975;28;20277;-79
2021/05/17 02:23:01;;;;;;;3.05;2.75;;;10.20;1.00;;;;;;5010124;28;20219;-77
2021/05/17 02:25:28;;;;;;;6.13;4.73;;;10.20;1.00;;;;;;5012356;28;20227;-79
2021/05/17 02:27:56;;;;;;;4.50;3.83;;;10.20;1.00;;;;;;5004151;28;20490;-79
2021/05/17 02:30:25;;;;;;;3.13;2.83;;;10.30;1.00;;;;;;5011814;28;20250;-79
2021/05/17 02:32:52;;;;;;;3.05;2.85;;;10.30;1.00;;;;;;5008296;28;20225;-79
2021/05/17 02:35:19;;;;;;;3.50;2.77;;;10.30;1.00;;;;;;5008377;28;20409;-80
2021/05/17 02:37:46;;;;;;;2.95;2.65;;;10.30;1.00;;;;;;5006089;28;20491;-79
2021/05/17 02:40:14;;;;;;;3.00;2.80;;;10.40;1.00;;;;;;5008854;28;20249;-80
2021/05/17 02:42:44;;;;;;;3.50;3.20;;;10.50;1.00;;;;;;5008827;28;20229;-79
2021/05/17 02:45:12;;;;;;;3.00;2.80;;;10.50;1.00;;;;;;5009061;28;20486;-81
2021/05/17 02:47:40;;;;;;;4.87;2.27;;;10.50;1.00;;;;;;5008478;28;20536;-79
2021/05/17 02:50:09;;;;;;;3.97;2.80;;;10.60;1.00;;;;;;5010781;28;20479;-78
2021/05/17 02:52:36;;;;;;;3.90;2.30;;;10.70;1.00;;;;;;5007007;28;20288;-79
2021/05/17 02:55:07;;;;;;;2.27;2.10;;;10.70;1.00;;;;;;4992945;28;21191;-78
2021/05/17 02:57:44;;;;;;;2.63;2.43;;;10.80;1.00;;;;;;5008155;28;20544;-82
2021/05/17 03:00:18;;;;;;;3.42;2.85;;;10.80;1.00;;;;;;5015593;28;20508;-82
2021/05/17 03:03:01;;;;;;;2.60;2.40;;;10.80;1.00;;;;;;5010886;28;20310;-83
2021/05/17 03:05:30;;;;;;;2.73;2.53;;;10.90;1.00;;;;;;5015557;28;20227;-83
2021/05/17 03:08:00;;;;;;;4.05;3.72;;;10.90;1.00;;;;;;5012938;28;20702;-83
2021/05/17 03:10:28;;;;;;;4.25;3.83;;;10.90;1.00;;;;;;5018442;28;20226;-83
2021/05/17 03:12:57;;;;;;;5.30;4.17;;;10.90;1.00;;;;;;5014596;28;20694;-83
2021/05/17 03:15:26;;;;;;;4.33;3.93;;;10.90;1.00;;;;;;5012500;28;21521;-83
2021/05/17 03:17:55;;;;;;;5.85;4.55;;;10.90;1.00;;;;;;5015922;28;20460;-83
2021/05/17 03:20:23;;;;;;;5.03;4.53;;;10.90;1.00;;;;;;5012489;28;20245;-84
2021/05/17 03:22:51;;;;;;;4.50;4.10;;;11.00;1.00;;;;;;4999964;28;20548;-83
2021/05/17 03:25:22;;;;;;;3.90;3.00;;;11.00;1.00;;;;;;5011254;28;20431;-84
2021/05/17 03:27:48;;;;;;;2.90;2.70;;;11.00;1.00;;;;;;5012366;28;20470;-84
2021/05/17 03:30:17;;;;;;;5.53;3.63;;;11.00;1.00;;;;;;5011064;28;20486;-83
2021/05/17 03:32:43;;;;;;;3.00;2.43;;;11.10;1.00;;;;;;5014003;28;20297;-83
2021/05/17 03:35:10;;;;;;;3.47;3.17;;;11.10;1.00;;;;;;5020496;28;20498;-82
2021/05/17 03:37:37;;;;;;;3.17;2.63;;;11.20;1.00;;;;;;5017295;28;20433;-84
2021/05/17 03:40:04;;;;;;;3.75;2.60;;;11.20;1.00;;;;;;5013712;28;20529;-84
2021/05/17 03:42:31;;;;;;;3.80;3.37;;;11.20;1.00;;;;;;5014408;28;20223;-83
2021/05/17 03:44:57;;;;;;;3.20;2.90;;;11.30;1.00;;;;;;5014568;28;20450;-83
2021/05/17 03:47:23;;;;;;;3.58;3.28;;;11.30;1.00;;;;;;5017008;28;20542;-84
2021/05/17 03:49:49;;;;;;;6.20;3.95;;;11.30;1.00;;;;;;5018787;28;20222;-84
2021/05/17 03:52:16;;;;;;;6.23;3.47;;;11.20;1.00;;;;;;5024865;28;20292;-86
2021/05/17 03:54:42;;;;;;;5.57;3.53;;;11.00;1.00;;;;;;5021031;28;20967;-85
2021/05/17 03:57:08;;;;;;;4.90;4.50;;;10.80;1.00;;;;;;5017444;28;21200;-85
2021/05/17 03:59:35;;;;;;;6.50;5.25;;;10.60;1.00;;;;;;5023259;28;22363;-84
2021/05/17 04:02:02;;;;;;;7.40;6.50;;;10.60;1.00;;;;;;5018549;28;20226;-85
2021/05/17 04:04:36;;;;;;;7.87;6.70;;;10.50;1.00;;;;;;5019261;28;20587;-85
2021/05/17 04:07:08;;;;;;;10.18;6.97;;;10.50;1.00;;;;;;5001683;28;20995;-83
2021/05/17 04:13:17;;;;;;;9.10;8.18;;;10.40;1.00;;;;;;5022626;28;21074;-83
2021/05/17 04:15:19;;;;;;;14.00;8.55;;;10.40;1.00;;;;;;5016043;28;20228;-85
2021/05/17 04:17:46;;;;;;;8.80;6.70;;;10.30;1.00;;;;;;5005100;28;20242;-84
2021/05/17 04:20:14;;;;;;;9.70;7.10;;;10.30;1.00;;;;;;5024394;28;20251;-83
2021/05/17 04:22:41;;;;;;;37.70;31.55;;;10.20;1.00;;;;;;5007751;28;20222;-88
2021/05/17 04:25:10;;;;;;;7.82;6.90;;;10.20;1.00;;;;;;5024734;28;20334;-87
2021/05/17 04:27:37;;;;;;;6.50;5.82;;;10.10;1.00;;;;;;5022639;28;20247;-85
2021/05/17 04:32:50;;;;;;;6.72;6.05;;;10.10;1.00;;;;;;5014222;28;20220;-85
2021/05/17 04:35:21;;;;;;;6.45;5.22;;;10.20;1.00;;;;;;5030009;28;20216;-87
2021/05/17 04:37:48;;;;;;;7.38;5.18;;;10.20;1.00;;;;;;5036007;28;20251;-87
2021/05/17 04:40:16;;;;;;;4.90;4.50;;;10.20;1.00;;;;;;5034156;28;20254;-87
2021/05/17 04:42:43;;;;;;;5.28;4.78;;;10.20;1.00;;;;;;5032818;28;20520;-87
2021/05/17 04:45:11;;;;;;;4.93;4.53;;;10.20;1.00;;;;;;5030765;28;20783;-85
2021/05/17 04:47:37;;;;;;;4.80;4.40;;;10.20;1.00;;;;;;5027623;28;20224;-86
2021/05/17 04:50:05;;;;;;;5.93;4.60;;;10.20;1.00;;;;;;5031652;28;20282;-86
2021/05/17 04:52:31;;;;;;;4.72;4.32;;;10.20;1.00;;;;;;5031537;28;20277;-85
2021/05/17 04:54:58;;;;;;;6.00;4.32;;;10.20;1.00;;;;;;5031576;28;20212;-86
2021/05/17 04:57:26;;;;;;;5.15;4.65;;;10.20;1.00;;;;;;5024385;28;21488;-85
2021/05/17 04:59:55;;;;;;;5.20;4.75;;;10.20;1.00;;;;;;5015993;28;20286;-85
2021/05/17 05:02:22;;;;;;;7.82;5.70;;;10.20;1.00;;;;;;5012872;28;20231;-84
2021/05/17 05:04:48;;;;;;;5.40;4.90;;;10.30;1.00;;;;;;5027417;28;20223;-85
2021/05/17 05:07:18;;;;;;;5.68;5.10;;;10.40;1.00;;;;;;5030690;28;20222;-86
2021/05/17 05:09:45;;;;;;;5.78;5.28;;;10.40;1.00;;;;;;5023714;28;20219;-87
2021/05/17 05:12:11;;;;;;;9.85;8.35;;;10.40;1.00;;;;;;5032896;28;20234;-87
2021/05/17 05:14:39;;;;;;;5.47;5.03;;;10.50;1.00;;;;;;5028648;28;20242;-86
2021/05/17 05:17:05;;;;;;;6.38;5.88;;;10.50;1.00;;;;;;5031247;28;20260;-86
2021/05/17 05:19:31;;;;;;;5.65;5.15;;;10.50;1.00;;;;;;5028181;28;20229;-85
2021/05/17 05:21:58;;;;;;;7.60;5.57;;;10.40;1.00;;;;;;5011782;28;20239;-85
2021/05/17 05:24:24;;;;;;;7.55;5.70;;;10.50;1.00;;;;;;5013081;28;20458;-86
2021/05/17 05:26:58;;;;;;;6.82;5.97;;;10.50;1.00;;;;;;5027534;28;20233;-85
2021/05/17 05:29:32;;;;;;;5.53;5.10;;;10.60;1.00;;;;;;5030035;28;20232;-88
2021/05/17 05:32:02;;;;;;;8.33;7.53;;;10.70;1.00;;;;;;5031680;28;20267;-87
2021/05/17 05:34:29;;;;;;;6.23;5.63;;;10.80;1.00;;;;;;5046759;28;20484;-88
2021/05/17 05:36:58;;;;;;;6.87;5.20;;;10.90;1.00;;;;;;5031446;28;20449;-87
2021/05/17 05:39:25;;;;;;;11.27;10.05;;;11.10;1.00;;;;;;5036832;28;20434;-88
2021/05/17 05:42:00;;;;;;;6.03;5.43;;;11.20;1.00;;;;;;5038876;28;20303;-87
2021/05/17 05:44:27;;;;;;;4.10;3.77;;;11.50;1.00;;;;;;5012490;28;20593;-88
2021/05/17 05:46:53;;;;;;;4.10;3.80;;;11.70;1.00;;;;;;5029046;28;20480;-88
2021/05/17 05:49:23;;;;;;;3.70;3.40;;;11.80;1.00;;;;;;5037788;28;20453;-89
2021/05/17 05:51:50;;;;;;;4.10;3.80;;;12.00;1.00;;;;;;5013400;28;20475;-90
2021/05/17 05:54:18;;;;;;;3.83;3.53;;;12.00;1.00;;;;;;5027747;28;20503;-87
2021/05/17 05:56:44;;;;;;;3.10;2.80;;;12.00;1.00;;;;;;5020577;28;20422;-87
2021/05/17 05:59:11;;;;;;;3.90;3.27;;;12.00;1.00;;;;;;5027374;28;20459;-88
2021/05/17 06:01:38;;;;;;;3.40;3.10;;;11.90;1.00;;;;;;5047686;28;20432;-86
2021/05/17 06:04:04;;;;;;;4.40;4.10;;;11.80;1.00;;;;;;5029459;28;20402;-84
2021/05/17 06:06:32;;;;;;;4.70;4.30;;;11.80;1.00;;;;;;5040535;28;20425;-80
2021/05/17 06:08:58;;;;;;;4.07;3.70;;;11.80;1.00;;;;;;5047367;28;20450;-81
2021/05/17 06:11:26;;;;;;;4.30;3.90;;;11.90;1.00;;;;;;5045809;28;20427;-81
2021/05/17 06:13:52;;;;;;;5.50;3.70;;;12.10;1.00;;;;;;5044635;28;20456;-81
2021/05/17 06:16:19;;;;;;;3.43;2.93;;;12.30;1.00;;;;;;5015900;28;20482;-82
2021/05/17 06:18:46;;;;;;;4.00;3.30;;;12.50;1.00;;;;;;5013407;28;20471;-81
2021/05/17 06:21:13;;;;;;;4.00;3.20;;;12.80;1.00;;;;;;5021584;28;20511;-79
2021/05/17 06:23:43;;;;;;;2.83;2.33;;;13.00;1.00;;;;;;5020225;28;21287;-80
2021/05/17 06:26:10;;;;;;;3.00;2.00;;;13.10;1.00;;;;;;4995407;28;20972;-80
2021/05/17 06:28:37;;;;;;;2.13;1.80;;;13.40;1.00;;;;;;5025529;28;20436;-80
2021/05/17 06:31:05;;;;;;;1.40;1.30;;;13.60;1.00;;;;;;5026658;28;20446;-79
2021/05/17 06:33:32;;;;;;;4.80;1.83;;;13.60;1.00;;;;;;5016736;28;20409;-80
2021/05/17 06:35:59;;;;;;;1.83;1.60;;;13.60;1.00;;;;;;5014223;28;20596;-82
2021/05/17 06:38:26;;;;;;;2.80;1.70;;;13.70;1.00;;;;;;5024508;28;20873;-80
2021/05/17 06:40:55;;;;;;;3.23;1.67;;;13.90;1.00;;;;;;5023976;28;20545;-80
2021/05/17 06:43:24;;;;;;;2.97;1.90;;;14.10;1.00;;;;;;5030499;28;20450;-80
2021/05/17 06:45:51;;;;;;;5.90;2.17;;;14.20;1.00;;;;;;5028807;28;20461;-78
2021/05/17 06:48:18;;;;;;;5.53;2.43;;;14.30;1.00;;;;;;5024501;28;21315;-79
2021/05/17 06:50:45;;;;;;;5.03;2.87;;;14.40;1.00;;;;;;5033969;28;20418;-80
2021/05/17 06:53:12;;;;;;;4.67;1.50;;;14.50;1.00;;;;;;5040055;28;20454;-81
2021/05/17 06:55:42;;;;;;;6.03;2.33;;;14.60;1.00;;;;;;5034531;28;20452;-79
2021/05/17 06:58:15;;;;;;;11.23;4.63;;;14.80;1.00;;;;;;5047880;28;21082;-79
2021/05/17 07:00:42;;;;;;;2.57;1.37;;;15.00;1.00;;;;;;5048622;28;20430;-79
2021/05/17 07:03:10;;;;;;;3.17;1.80;;;15.30;1.00;;;;;;5046405;28;20404;-81
2021/05/17 07:05:38;;;;;;;5.27;2.47;;;15.60;1.00;;;;;;5028984;28;20430;-81
2021/05/17 07:13:45;;;;;;;2.80;2.03;;;15.90;1.00;;;;;;5048910;28;20421;-83
2021/05/17 07:16:15;;;;;;;2.23;1.87;;;15.90;1.00;;;;;;5050834;28;20425;-83
2021/05/17 07:18:41;;;;;;;1.83;1.67;;;15.90;1.00;;;;;;5050754;28;20986;-84
2021/05/17 07:23:57;;;;;;;2.10;1.90;;;15.60;1.00;;;;;;5049794;28;20459;-82
2021/05/17 07:26:24;;;;;;;2.87;1.57;;;15.40;1.00;;;;;;5032471;28;20460;-84
2021/05/17 07:28:52;;;;;;;2.90;1.70;;;15.40;1.00;;;;;;5049584;28;20399;-83
2021/05/17 07:31:18;;;;;;;3.80;1.60;;;15.30;1.00;;;;;;5034961;28;20424;-82
2021/05/17 07:33:45;;;;;;;3.50;2.00;;;15.30;1.00;;;;;;5044343;28;20397;-83
2021/05/17 07:36:13;;;;;;;4.90;2.10;;;15.30;1.00;;;;;;5041207;28;20429;-83
2021/05/17 07:38:41;;;;;;;4.13;1.70;;;15.40;1.00;;;;;;5036054;28;20438;-85
2021/05/17 07:41:08;;;;;;;1.40;1.20;;;15.40;1.00;;;;;;5037555;28;20462;-83
2021/05/17 07:43:34;;;;;;;3.57;2.93;;;15.40;1.00;;;;;;5037000;28;20456;-82
2021/05/17 07:46:02;;;;;;;1.43;1.33;;;15.30;1.00;;;;;;5035534;28;20483;-83
2021/05/17 07:48:28;;;;;;;3.07;1.40;;;15.30;1.00;;;;;;5034241;28;20528;-83
2021/05/17 07:50:54;;;;;;;2.90;1.93;;;15.40;1.00;;;;;;5028108;28;20393;-84
2021/05/17 07:53:22;;;;;;;1.37;1.27;;;15.50;1.00;;;;;;5035315;28;20441;-82
2021/05/17 07:55:51;;;;;;;3.33;1.40;;;15.60;1.00;;;;;;5035708;28;20414;-83
2021/05/17 07:58:17;;;;;;;3.43;2.00;;;15.70;1.00;;;;;;5040419;28;20429;-83
2021/05/17 08:00:44;;;;;;;3.50;1.30;;;15.80;1.00;;;;;;5034094;28;20446;-82
2021/05/17 08:03:11;;;;;;;1.33;1.20;;;16.00;1.00;;;;;;5031752;28;20473;-83
2021/05/17 08:05:38;;;;;;;1.87;1.73;;;16.20;1.00;;;;;;5039089;28;20572;-83
2021/05/17 08:08:07;;;;;;;1.07;0.90;;;16.40;1.00;;;;;;5006351;28;20438;-82
2021/05/17 08:10:35;;;;;;;2.03;0.60;;;16.40;1.00;;;;;;5010049;28;20451;-88
2021/05/17 08:16:09;;;;;;;1.77;1.17;;;16.50;1.00;;;;;;5012814;28;20487;-79
2021/05/17 08:18:37;;;;;;;4.33;1.67;;;16.70;1.00;;;;;;5022921;28;20800;-84
2021/05/17 08:21:05;;;;;;;2.10;0.83;;;16.80;1.00;;;;;;5015637;28;20497;-84
2021/05/17 08:23:32;;;;;;;2.20;1.10;;;16.90;1.00;;;;;;5023588;28;20478;-84
2021/05/17 08:25:58;;;;;;;1.70;1.10;;;17.10;1.00;;;;;;5022182;28;20518;-84
2021/05/17 08:28:25;;;;;;;1.83;1.67;;;17.20;1.00;;;;;;5026144;28;20444;-84
2021/05/17 08:30:55;;;;;;;1.30;1.03;;;17.40;1.00;;;;;;5017931;28;20472;-81
2021/05/17 08:33:22;;;;;;;1.83;1.20;;;17.40;1.00;;;;;;5014762;28;20535;-80
2021/05/17 08:35:49;;;;;;;1.50;0.90;;;17.60;1.00;;;;;;5014055;28;20475;-83
2021/05/17 08:38:16;;;;;;;1.73;1.10;;;17.80;1.00;;;;;;5015110;28;20455;-81
2021/05/17 08:40:44;;;;;;;2.27;2.07;;;18.20;1.00;;;;;;5016191;28;20807;-81
2021/05/17 08:43:10;;;;;;;1.43;0.80;;;18.40;1.00;;;;;;4993033;28;22185;-82
2021/05/17 08:45:36;;;;;;;2.03;1.40;;;18.40;1.00;;;;;;4998750;28;20465;-80
2021/05/17 08:48:04;;;;;;;1.30;0.80;;;18.40;1.00;;;;;;5019226;28;20443;-82
2021/05/17 08:50:32;;;;;;;1.57;1.20;;;18.40;1.00;;;;;;5025263;28;20484;-82
2021/05/17 08:53:00;;;;;;;2.30;0.90;;;18.50;1.00;;;;;;5017045;28;20495;-81
2021/05/17 08:55:27;;;;;;;1.00;0.80;;;18.60;1.00;;;;;;5016876;28;20543;-82
2021/05/17 08:57:53;;;;;;;1.10;0.83;;;18.70;1.00;;;;;;5016336;28;20495;-81
2021/05/17 09:00:21;;;;;;;1.40;0.80;;;19.00;1.00;;;;;;4997968;28;20461;-83
2021/05/17 09:02:49;;;;;;;1.23;0.70;;;19.00;1.00;;;;;;5002157;28;20480;-84
2021/05/17 09:05:19;;;;;;;1.10;0.70;;;18.80;1.00;;;;;;5004892;28;20467;-85
2021/05/17 09:07:47;;;;;;;3.37;1.73;;;18.80;1.00;;;;;;5023046;28;20561;-84
2021/05/17 09:10:25;;;;;;;2.17;1.00;;;18.50;1.00;;;;;;5018038;28;20492;-86
2021/05/17 09:13:00;;;;;;;1.40;0.60;;;18.30;1.00;;;;;;5001157;28;20535;-85
2021/05/17 09:18:51;;;;;;;2.03;0.80;;;18.20;1.00;;;;;;5031411;22;20563;-85
2021/05/17 09:21:53;;;;;;;1.47;0.90;;;17.90;1.00;;;;;;5007734;28;20572;-85
2021/05/17 09:24:57;;;;;;;2.03;1.20;;;17.90;1.00;;;;;;4973930;28;21285;-84
2021/05/17 09:27:35;;;;;;;1.43;0.80;;;18.00;1.00;;;;;;4998094;28;20473;-84
2021/05/17 09:30:05;;;;;;;3.83;1.60;;;18.00;1.00;;;;;;5017651;28;20528;-85
2021/05/17 09:32:33;;;;;;;1.93;0.93;;;19.00;1.00;;;;;;5017799;28;20504;-84
2021/05/17 09:35:03;;;;;;;1.90;1.00;;;19.40;1.00;;;;;;5019480;28;20437;-84
2021/05/17 09:37:44;;;;;;;1.90;1.70;;;19.30;1.00;;;;;;5003855;28;20539;-85
2021/05/17 09:40:19;;;;;;;2.10;0.87;;;19.10;1.00;;;;;;5012232;28;20560;-84
2021/05/17 09:42:59;;;;;;;2.13;1.67;;;18.90;1.00;;;;;;5018611;28;20453;-83
2021/05/17 09:45:30;;;;;;;2.43;0.70;;;18.90;1.00;;;;;;5005162;28;20452;-81
2021/05/17 09:47:56;;;;;;;1.43;1.33;;;19.00;1.00;;;;;;5016097;28;21287;-81
2021/05/17 09:50:23;;;;;;;6.03;1.37;;;19.20;1.00;;;;;;5012834;28;20471;-80
2021/05/17 09:52:50;;;;;;;2.17;0.80;;;19.50;1.00;;;;;;5011279;28;20584;-81
2021/05/17 09:55:16;;;;;;;1.80;0.87;;;19.50;1.00;;;;;;5015321;28;20528;-84
2021/05/17 09:57:44;;;;;;;0.80;0.70;;;20.50;1.00;;;;;;5019139;28;20534;-83
2021/05/17 10:00:20;;;;;;;2.67;1.00;;;22.10;1.00;;;;;;5003077;28;20453;-84
2021/05/17 10:02:49;;;;;;;0.70;0.50;;;23.80;1.00;;;;;;5024220;28;20718;-84
2021/05/17 10:05:22;;;;;;;2.10;0.80;;;25.50;1.00;;;;;;5023829;28;20434;-85
2021/05/17 10:07:51;;;;;;;1.53;0.57;;;26.50;1.00;;;;;;5029405;28;20469;-83
2021/05/17 10:10:18;;;;;;;1.67;1.03;;;26.50;1.00;;;;;;5039360;28;20610;-84
2021/05/17 10:12:47;;;;;;;1.10;0.60;;;26.90;1.00;;;;;;5033945;28;20867;-84
2021/05/17 10:15:16;;;;;;;1.70;0.73;;;27.20;1.00;;;;;;5034581;28;20405;-84
2021/05/17 10:17:43;;;;;;;1.70;0.80;;;26.40;1.00;;;;;;5049828;28;20429;-87
2021/05/17 10:20:17;;;;;;;2.80;0.87;;;26.20;1.00;;;;;;5046634;28;20405;-83
2021/05/17 10:22:48;;;;;;;3.40;1.13;;;25.70;1.00;;;;;;5028008;28;20422;-86
2021/05/17 10:25:23;;;;;;;4.10;0.87;;;24.90;1.00;;;;;;5032217;28;20561;-83
2021/05/17 10:27:53;;;;;;;1.40;0.93;;;24.10;1.00;;;;;;5041288;28;20457;-85
2021/05/17 10:30:25;;;;;;;1.57;0.70;;;23.60;1.00;;;;;;5006783;28;20429;-84
2021/05/17 10:32:58;;;;;;;0.67;0.63;;;23.40;1.00;;;;;;5023183;28;21189;-82
2021/05/17 10:35:26;;;;;;;0.80;0.60;;;23.00;1.00;;;;;;5024429;28;20461;-83
2021/05/17 10:38:16;;;;;;;5.60;1.70;;;22.90;1.00;;;;;;5029033;28;20419;-83
2021/05/17 10:40:46;;;;;;;2.07;0.80;;;24.40;1.00;;;;;;5029148;28;20854;-82
2021/05/17 10:43:42;;;;;;;3.20;1.27;;;26.50;1.00;;;;;;5017467;28;20404;-82
2021/05/17 10:49:22;;;;;;;0.80;0.60;;;30.10;1.00;;;;;;5032650;28;20541;-82
2021/05/17 10:51:53;;;;;;;2.50;1.50;;;30.50;1.00;;;;;;5027251;28;20456;-83
2021/05/17 10:54:27;;;;;;;10.10;9.30;;;31.80;1.00;;;;;;5028519;28;20435;-82
2021/05/17 10:56:57;;;;;;;0.90;0.60;;;31.00;1.00;;;;;;5030591;28;20466;-82
2021/05/17 11:02:22;;;;;;;1.10;0.70;;;27.80;1.00;;;;;;5028416;28;20495;-79
2021/05/17 11:04:57;;;;;;;2.33;1.10;;;26.70;1.00;;;;;;5023734;28;20481;-82
2021/05/17 11:07:26;;;;;;;1.40;0.60;;;27.70;1.00;;;;;;5022930;28;20431;-82
2021/05/17 11:09:59;;;;;;;1.70;1.10;;;28.80;1.00;;;;;;5028850;28;20488;-82
2021/05/17 11:13:06;;;;;;;2.60;1.30;;;30.20;1.00;;;;;;5023566;28;20499;-82
2021/05/17 11:16:03;;;;;;;4.00;1.50;;;31.40;1.00;;;;;;5012813;28;20461;-82
2021/05/17 11:18:40;;;;;;;2.63;1.60;;;32.40;1.00;;;;;;5031902;28;21672;-81
2021/05/17 11:21:26;;;;;;;1.70;1.13;;;31.40;1.00;;;;;;5023810;28;20450;-83
2021/05/17 11:23:55;;;;;;;3.30;1.50;;;29.70;1.00;;;;;;5026005;28;20448;-82
2021/05/17 11:26:24;;;;;;;2.33;1.00;;;29.00;1.00;;;;;;5024350;28;20565;-82
2021/05/17 11:29:09;;;;;;;1.33;0.90;;;28.80;1.00;;;;;;5023002;28;20439;-83
2021/05/17 11:31:50;;;;;;;1.00;0.80;;;30.30;1.00;;;;;;5032780;28;21242;-83
2021/05/17 11:34:25;;;;;;;2.80;1.23;;;31.20;1.00;;;;;;5022373;28;22112;-83
2021/05/17 11:37:13;;;;;;;1.33;0.93;;;32.30;1.00;;;;;;5029586;28;21149;-82
2021/05/17 11:39:41;;;;;;;8.33;7.50;;;32.10;1.00;;;;;;5023868;28;20418;-82
2021/05/17 11:42:10;;;;;;;1.63;0.90;;;32.10;1.00;;;;;;5020701;28;20473;-80
2021/05/17 11:44:40;;;;;;;4.20;3.60;;;32.90;1.00;;;;;;5017068;28;20444;-80
2021/05/17 11:47:08;;;;;;;1.10;0.50;;;32.40;1.00;;;;;;5005362;28;20603;-82
2021/05/17 11:49:38;;;;;;;1.70;0.63;;;32.70;1.00;;;;;;5016380;28;20456;-81
2021/05/17 11:52:08;;;;;;;2.43;0.73;;;32.30;1.00;;;;;;4997250;28;21378;-81
2021/05/17 11:54:37;;;;;;;1.53;0.70;;;30.60;1.00;;;;;;5013204;28;20425;-81
2021/05/17 11:57:05;;;;;;;1.83;0.60;;;29.00;1.00;;;;;;5014521;28;20566;-80
2021/05/17 11:59:32;;;;;;;1.93;1.30;;;27.80;1.00;;;;;;5015906;28;20593;-81
2021/05/17 12:02:01;;;;;;;1.83;0.80;;;27.20;1.00;;;;;;5021440;28;20483;-82
2021/05/17 12:04:33;;;;;;;1.80;1.10;;;26.60;1.00;;;;;;5023415;28;20454;-81
2021/05/17 12:07:02;;;;;;;1.73;0.90;;;26.30;1.00;;;;;;5018835;28;21562;-81
2021/05/17 12:09:32;;;;;;;1.33;0.70;;;26.80;1.00;;;;;;5023193;28;20458;-82
2021/05/17 12:12:00;;;;;;;1.83;0.83;;;27.90;1.00;;;;;;5022047;28;20435;-81
2021/05/17 12:14:29;;;;;;;1.93;1.10;;;28.00;1.00;;;;;;5022580;28;20454;-82
2021/05/17 12:17:05;;;;;;;1.60;0.80;;;29.30;1.00;;;;;;5007606;28;20460;-82
2021/05/17 12:19:34;;;;;;;1.80;0.70;;;31.00;1.00;;;;;;5019549;28;20548;-80
2021/05/17 12:22:05;;;;;;;2.43;1.20;;;31.90;1.00;;;;;;5019496;28;20511;-82
2021/05/17 12:24:32;;;;;;;6.63;3.93;;;30.50;1.00;;;;;;5005875;28;21479;-80
2021/05/17 12:27:00;;;;;;;1.07;0.80;;;28.90;1.00;;;;;;5020640;28;20530;-82
2021/05/17 12:29:29;;;;;;;1.10;1.00;;;27.40;1.00;;;;;;5021713;28;20430;-82
2021/05/17 12:32:08;;;;;;;0.93;0.70;;;26.70;1.00;;;;;;5021289;28;20459;-84
2021/05/17 12:34:35;;;;;;;0.97;0.53;;;28.30;1.00;;;;;;5027551;28;20457;-82
2021/05/17 12:37:03;;;;;;;1.00;0.50;;;29.60;1.00;;;;;;5028975;28;20521;-84
2021/05/17 12:39:32;;;;;;;1.07;0.70;;;31.30;1.00;;;;;;5022451;28;20453;-82
2021/05/17 12:41:58;;;;;;;1.10;0.97;;;32.00;1.00;;;;;;5030637;28;20449;-83
2021/05/17 12:44:34;;;;;;;1.83;0.57;;;32.90;1.00;;;;;;5023690;28;20436;-83
2021/05/17 12:47:04;;;;;;;1.50;1.00;;;33.70;1.00;;;;;;5025333;28;20441;-83
2021/05/17 12:49:44;;;;;;;3.10;1.97;;;34.50;1.00;;;;;;5028822;28;20442;-82
2021/05/17 12:52:11;;;;;;;2.50;1.30;;;34.10;1.00;;;;;;5025999;28;20452;-83
2021/05/17 12:54:38;;;;;;;1.00;0.57;;;33.10;1.00;;;;;;5026611;28;20446;-83
2021/05/17 12:57:05;;;;;;;0.90;0.60;;;31.90;1.00;;;;;;5020899;28;20479;-83
2021/05/17 12:59:44;;;;;;;1.53;0.70;;;31.00;1.00;;;;;;5024076;28;20674;-83
2021/05/17 13:02:11;;;;;;;1.70;1.20;;;30.40;1.00;;;;;;5023750;28;20976;-81
2021/05/17 13:04:38;;;;;;;1.00;0.57;;;28.90;1.00;;;;;;5027701;28;20538;-82
2021/05/17 13:07:06;;;;;;;1.90;0.70;;;27.30;1.00;;;;;;5019159;28;20450;-81
2021/05/17 13:09:34;;;;;;;2.00;0.60;;;26.50;1.00;;;;;;5020096;28;21227;-82
2021/05/17 13:12:01;;;;;;;1.00;0.60;;;27.30;1.00;;;;;;5022630;28;20445;-82
2021/05/17 13:14:30;;;;;;;0.90;0.60;;;29.60;1.00;;;;;;5018376;28;20457;-83
2021/05/17 13:17:01;;;;;;;0.77;0.63;;;31.00;1.00;;;;;;5016859;28;20492;-82
2021/05/17 13:19:42;;;;;;;1.37;0.67;;;29.60;1.00;;;;;;5030691;28;20422;-83
2021/05/17 13:22:36;;;;;;;1.23;1.10;;;28.50;1.00;;;;;;5010766;28;20573;-83
2021/05/17 13:29:59;;;;;;;1.00;0.70;;;27.40;1.00;;;;;;5021380;28;20486;-81
2021/05/17 13:31:09;;;;;;;1.43;1.00;;;30.20;1.00;;;;;;5026148;28;20551;-83
2021/05/17 13:33:46;;;;;;;2.47;0.80;;;30.30;1.00;;;;;;5018555;28;21913;-81
2021/05/17 13:36:15;;;;;;;1.47;0.93;;;29.10;1.00;;;;;;5036717;28;20450;-83
2021/05/17 13:38:44;;;;;;;2.13;1.13;;;27.60;1.00;;;;;;5024975;28;20542;-83
2021/05/17 13:41:12;;;;;;;1.93;0.90;;;26.80;1.00;;;;;;5028592;28;20465;-82